• Join FlightAware (Why Join?)
  • Login
  • US Flag 
11:44AM EST


 

Airport Tracker/Info


-or-


 

Live Flight TrackerFlight Track Log ✈ SWA2975 ✈ 08-Jul-2013 ✈ KSLC - KMDW

Flight Track Log - Related Links

Times and Time Zones

All times are in EDT time to prevent confusion due to time zone crossing. See the SWA2975 flight status page for this flight to view local times or setup timezone preferences in your user account.

Time Position Orientation Groundspeed Altitude Reporting Facility
EDT Latitude Longitude Course Direction KTS MPH feet Rate Location/Type
06:32PM 40.7710 -111.9730 175° South 179 206 4,900  Level FlightAware
06:32PM 40.7580 -111.9750 187° South 184 212 5,500 1,800 Climbing FlightAware
06:32PM 40.7520 -111.9800 212° Southwest 203 234 5,600 960 Climbing FlightAware
06:32PM 40.7430 -112.0080 247° West 236 272 6,000 1,560 Climbing FlightAware
06:33PM 40.7500 -112.0490 283° West 254 292 6,900 2,040 Climbing FlightAware
06:33PM 40.7640 -112.0800 301° West 261 300 7,800 2,520 Climbing FlightAware
06:34PM 40.7930 -112.1120 320° Northwest 256 295 9,300 2,700 Climbing FlightAware
06:34PM 40.8060 -112.1150 350° North 263 303 9,700 1,800 Climbing FlightAware
06:34PM 40.8380 -112.0960 24° Northeast 284 327 10,500 1,860 Climbing FlightAware
06:35PM 40.8480 -112.0720 61° Northeast 291 335 11,100 2,280 Climbing FlightAware
06:35PM 40.8700 -112.0180 62° Northeast 301 346 12,400 2,220 Climbing FlightAware
06:36PM 40.9040 -111.9490 57° Northeast 310 357 14,000 1,680 Climbing FlightAware
06:37PM 40.9470 -111.8900 46° Northeast 354 407 14,800 1,380 Climbing FlightAware
06:37PM 40.9960 -111.8230 46° Northeast 379 436 15,900 2,220 Climbing FlightAware
06:38PM 41.0520 -111.7520 44° Northeast 374 430 18,000 2,460 Climbing FlightAware
06:39PM 41.1000 -111.6860 46° Northeast 386 444 19,400 1,560 Climbing FlightAware
06:39PM 41.1550 -111.6100 46° Northeast 415 478 20,200 1,320 Climbing FlightAware
06:40PM 41.1890 -111.5410 57° Northeast 422 486 21,100 1,860 Climbing FlightAware
06:41PM 41.2260 -111.4330 65° Northeast 425 489 22,700 1,860 Climbing FlightAware
06:41PM 41.2600 -111.3320 66° East 435 501 23,800 1,500 Climbing FlightAware
06:42PM 41.2860 -111.2510 67° East 442 509 24,600 1,380 Climbing FlightAware
06:43PM 41.3130 -111.1350 73° East 454 522 25,600 1,020 Climbing FlightAware
06:43PM 41.3300 -111.0250 78° East 473 544 26,100 480 Climbing FlightAware
06:44PM 41.3490 -110.9050 78° East 481 554 26,300 120 Climbing FlightAware
06:45PM 41.3630 -110.8170 78° East 481 554 26,300  Level FlightAware
06:45PM 41.3820 -110.6960 78° East 481 554 26,300  Level FlightAware
06:46PM 41.3960 -110.6090 78° East 481 554 26,300  Level FlightAware
06:47PM 41.4200 -110.4590 78° East 481 554 26,300 1,920 Level FlightAware
06:50PM 41.4960 -109.8740 80° East 516 594 33,200 2,400 Climbing FlightAware
06:50PM 41.5110 -109.7390 82° East 512 589 34,100 1,200 Climbing FlightAware
06:51PM 41.5250 -109.6100 82° East 508 585 34,900 600 Climbing FlightAware
06:52PM 41.5400 -109.4790 81° East 511 588 35,000 60 Climbing FlightAware
06:52PM 41.5550 -109.3420 82° East 511 588 35,000  Level FlightAware
06:53PM 41.5690 -109.2160 82° East 511 588 35,000  Level FlightAware
06:54PM 41.5830 -109.0800 82° East 513 590 35,000  Level FlightAware
06:55PM 41.5950 -108.9530 83° East 511 588 35,000  Level FlightAware
06:55PM 41.6060 -108.8100 84° East 513 590 35,000  Level FlightAware
06:56PM 41.6160 -108.6800 84° East 515 593 35,000  Level FlightAware
06:57PM 41.6260 -108.5580 84° East 514 592 35,000  Level FlightAware
06:57PM 41.6360 -108.4200 84° East 514 592 35,000  Level FlightAware
06:58PM 41.6430 -108.3110 85° East 514 592 35,000  Level FlightAware
06:59PM 41.6360 -108.1710 94° East 509 586 35,000  Level FlightAware
06:59PM 41.6230 -108.0510 98° East 509 586 35,000  Level FlightAware
07:00PM 41.6090 -107.9230 98° East 508 585 35,000  Level FlightAware
07:01PM 41.5930 -107.7850 99° East 510 587 35,000  Level FlightAware
07:01PM 41.5790 -107.6600 98° East 510 587 35,000  Level FlightAware
07:02PM 41.5630 -107.5250 99° East 510 587 35,000  Level FlightAware
07:03PM 41.5520 -107.4140 98° East 512 589 35,000  Level FlightAware
07:03PM 41.5530 -107.2850 89° East 514 592 35,000  Level FlightAware
07:04PM 41.5560 -107.1470 88° East 513 590 35,000  Level FlightAware
07:05PM 41.5590 -107.0260 88° East 515 593 35,000  Level FlightAware
07:06PM 41.5630 -106.8270 88° East 515 593 35,000  Level FlightAware
07:07PM 41.5650 -106.7300 88° East 515 593 35,000  Level FlightAware
07:07PM 41.5680 -106.6320 88° East 515 593 35,000  Level FlightAware
07:08PM 41.5660 -106.4380 91° East 516 594 35,000  Level FlightAware
07:09PM 41.5680 -106.3080 89° East 514 592 35,000  Level FlightAware
07:09PM 41.5690 -106.1630 89° East 514 592 35,000  Level FlightAware
07:10PM 41.5700 -106.0400 89° East 515 593 35,000  Level FlightAware
07:11PM 41.5710 -105.8570 90° East 514 592 35,000  Level FlightAware
07:12PM 41.5720 -105.7250 89° East 515 593 35,000  Level FlightAware
07:12PM 41.5730 -105.6120 89° East 514 592 35,000  Level FlightAware
07:13PM 41.5730 -105.4860 90° East 512 589 35,000  Level FlightAware
07:14PM 41.5740 -105.3560 89° East 512 589 35,000  Level FlightAware
07:14PM 41.5740 -105.2410 90° East 511 588 35,000  Level FlightAware
07:15PM 41.5740 -105.0610 90° East 509 586 35,000  Level FlightAware
07:16PM 41.5740 -104.9340 90° East 508 585 35,000  Level FlightAware
07:16PM 41.5730 -104.8070 91° East 505 581 35,000  Level FlightAware
07:17PM 41.5730 -104.6680 90° East 506 582 35,000  Level FlightAware
07:18PM 41.5730 -104.5350 90° East 506 582 35,000  Level FlightAware
07:19PM 41.5720 -104.4060 91° East 502 578 35,000  Level FlightAware
07:19PM 41.5710 -104.2810 91° East 501 577 35,000  Level FlightAware
07:20PM 41.5700 -104.1470 91° East 502 578 35,000  Level FlightAware
07:21PM 41.5690 -104.0170 91° East 503 579 35,000  Level FlightAware
07:21PM 41.5670 -103.8920 91° East 503 579 35,000  Level FlightAware
07:22PM 41.5660 -103.7670 91° East 503 579 35,000  Level FlightAware
07:23PM 41.5650 -103.6400 91° East 508 585 35,000  Level FlightAware
07:23PM 41.5630 -103.5090 91° East 510 587 35,000  Level FlightAware
07:24PM 41.5610 -103.3810 91° East 508 585 35,000  Level FlightAware
07:25PM 41.5590 -103.2440 91° East 509 586 35,000  Level FlightAware
07:26PM 41.5570 -103.1220 91° East 511 588 35,000  Level FlightAware
07:26PM 41.5550 -103.0200 91° East 511 588 35,000  Level FlightAware
07:27PM 41.5540 -102.8890 91° East 511 588 35,000  Level FlightAware
07:28PM 41.5490 -102.7270 92° East 510 587 35,000  Level FlightAware
07:28PM 41.5470 -102.6070 91° East 509 586 35,000  Level FlightAware
07:29PM 41.5460 -102.4780 91° East 509 586 35,000  Level FlightAware
07:30PM 41.5400 -102.3180 93° East 502 578 35,000  Level FlightAware
07:31PM 41.5360 -102.1470 92° East 502 578 35,000  Level FlightAware
07:32PM 41.5320 -101.9990 92° East 500 575 35,000  Level FlightAware
07:33PM 41.5260 -101.7810 92° East 497 572 35,000  Level FlightAware
07:33PM 41.5240 -101.6870 92° East 497 572 35,000  Level FlightAware
07:34PM 41.5180 -101.5150 93° East 495 570 35,000  Level FlightAware
07:35PM 41.5140 -101.3850 92° East 495 570 35,000  Level FlightAware
07:36PM 41.5120 -101.2910 92° East 495 570 35,000  Level FlightAware
07:36PM 41.5090 -101.1670 92° East 495 570 35,000  Level FlightAware
07:37PM 41.5060 -101.0730 92° East 495 570 35,000  Level FlightAware
07:38PM 41.5030 -100.9480 92° East 495 570 35,000  Level FlightAware
07:38PM 41.5000 -100.8550 92° East 495 570 35,000  Level FlightAware
07:39PM 41.4970 -100.7300 92° East 495 570 35,000  Level FlightAware
07:40PM 41.4950 -100.6370 92° East 495 570 35,000  Level FlightAware
07:40PM 41.4920 -100.5430 92° East 495 570 35,000  Level FlightAware
07:41PM 41.4900 -100.4470 92° East 495 570 35,000  Level FlightAware
07:42PM 41.4870 -100.3480 92° East 495 570 35,000  Level FlightAware
07:42PM 41.4850 -100.2550 92° East 495 570 35,000  Level FlightAware
07:43PM 41.4810 -100.1330 92° East 495 570 35,000  Level FlightAware
07:44PM 41.4790 -100.0390 92° East 495 570 35,000  Level FlightAware
07:44PM 41.4464 -99.6583 92° East 492 566 35,000  Level Denver Center
07:50PM 41.3930 -98.6540 92° East 483 556 35,000  Level FlightAware
07:51PM 41.3860 -98.5410 95° East 481 554 35,000  Level FlightAware
07:51PM 41.3610 -98.4260 106° East 478 550 35,000  Level FlightAware
07:52PM 41.3190 -98.3290 120° Southeast 478 550 35,000  Level FlightAware
07:53PM 41.2670 -98.2240 123° Southeast 478 550 35,000  Level FlightAware
07:53PM 41.2130 -98.1170 124° Southeast 475 547 35,000  Level FlightAware
07:54PM 41.1650 -98.0210 124° Southeast 474 545 35,000  Level FlightAware
07:55PM 41.1160 -97.9230 124° Southeast 475 547 35,000  Level FlightAware
07:55PM 41.0890 -97.8450 115° Southeast 480 552 35,000  Level FlightAware
07:56PM 41.0880 -97.7370 91° East 479 551 35,000  Level FlightAware
07:56PM 41.0930 -97.6250 87° East 477 549 35,000  Level FlightAware
07:57PM 41.0980 -97.5080 87° East 477 549 35,000  Level FlightAware
07:58PM 41.1030 -97.3970 87° East 478 550 35,000  Level FlightAware
07:58PM 41.1070 -97.2890 87° East 479 551 35,000  Level FlightAware
07:59PM 41.1120 -97.1630 87° East 480 552 35,000  Level FlightAware
08:00PM 41.1160 -97.0430 87° East 480 552 35,000  Level FlightAware
08:00PM 41.1210 -96.9140 87° East 480 552 35,000  Level FlightAware
08:01PM 41.1260 -96.7790 87° East 479 551 35,000  Level FlightAware
08:02PM 41.1300 -96.6600 87° East 479 551 35,000  Level FlightAware
08:03PM 41.1350 -96.5290 87° East 479 551 35,000  Level FlightAware
08:03PM 41.1380 -96.4260 88° East 479 551 35,000  Level FlightAware
08:04PM 41.1410 -96.3240 88° East 477 549 35,000  Level FlightAware
08:05PM 41.1460 -96.1940 87° East 476 548 35,000  Level FlightAware
08:05PM 41.1490 -96.0800 88° East 475 547 35,000  Level FlightAware
08:06PM 41.1530 -95.9450 88° East 474 545 35,000  Level FlightAware
08:07PM 41.1570 -95.8140 88° East 473 544 35,000  Level FlightAware
08:07PM 41.1590 -95.7170 88° East 472 543 35,000  Level FlightAware
08:08PM 41.1630 -95.5680 88° East 472 543 35,000  Level FlightAware
08:09PM 41.1660 -95.4560 88° East 473 544 35,000  Level FlightAware
08:09PM 41.1690 -95.3320 88° East 473 544 35,000  Level FlightAware
08:10PM 41.1720 -95.2060 88° East 473 544 35,000  Level FlightAware
08:11PM 41.1750 -95.0740 88° East 473 544 35,000  Level FlightAware
08:12PM 41.1770 -94.9290 89° East 473 544 35,000  Level FlightAware
08:13PM 41.1800 -94.8000 88° East 475 547 35,000  Level FlightAware
08:13PM 41.1820 -94.6890 89° East 478 550 35,000  Level FlightAware
08:14PM 41.1860 -94.5160 88° East 481 554 35,000  Level FlightAware
08:15PM 41.1890 -94.3960 88° East 481 554 35,000  Level FlightAware
08:16PM 41.1920 -94.2800 88° East 481 554 35,000  Level FlightAware
08:17PM 41.1910 -94.0960 90° East 482 555 35,000  Level FlightAware
08:17PM 41.1930 -93.9630 89° East 481 554 35,000  Level FlightAware
08:18PM 41.1940 -93.8720 89° East 481 554 35,000  Level FlightAware
08:19PM 41.1960 -93.6750 89° East 479 551 35,000  Level FlightAware
08:20PM 41.1970 -93.5620 89° East 479 551 35,000 -240 Level FlightAware
08:20PM 41.1970 -93.4290 90° East 479 551 34,700 -780 Descending FlightAware
08:21PM 41.1980 -93.3000 89° East 482 555 34,000 -1,020 Descending FlightAware
08:22PM 41.1990 -93.1770 89° East 487 560 33,300 -1,020 Descending FlightAware
08:22PM 41.1990 -93.0640 90° East 489 563 32,700 -960 Descending FlightAware
08:23PM 41.2000 -92.9280 89° East 489 563 32,000 -960 Descending FlightAware
08:24PM 41.2000 -92.8130 90° East 490 564 31,400 -1,020 Descending FlightAware
08:24PM 41.2000 -92.6920 90° East 489 563 30,700 -1,020 Descending FlightAware
08:25PM 41.2000 -92.5640 90° East 489 563 30,000 -1,020 Descending FlightAware
08:26PM 41.2000 -92.4540 90° East 490 564 29,400 -960 Descending FlightAware
08:27PM 41.1990 -92.3230 91° East 488 562 28,800 -900 Descending FlightAware
08:27PM 41.1990 -92.2010 90° East 484 557 28,200 -960 Descending FlightAware
08:28PM 41.1990 -92.0800 90° East 490 564 27,500 -960 Descending FlightAware
08:29PM 41.1980 -91.9630 91° East 496 571 27,000 -420 Descending FlightAware
08:29PM 41.1980 -91.8460 90° East 494 568 27,000  Level FlightAware
08:30PM 41.1960 -91.7240 91° East 451 519 27,000  Level FlightAware
08:31PM 41.1960 -91.6280 90° East 451 519 27,000 -900 Level FlightAware
08:31PM 41.1950 -91.5020 91° East 447 514 25,800 -1,980 Descending FlightAware
08:32PM 41.1930 -91.3990 91° East 443 510 24,400 -1,740 Descending FlightAware
08:33PM 41.1920 -91.2810 91° East 434 499 23,600 -1,020 Descending FlightAware
08:33PM 41.1910 -91.1730 91° East 427 491 23,000 -540 Descending FlightAware
08:34PM 41.1900 -91.0880 91° East 426 490 23,000  Level FlightAware
08:35PM 41.1880 -90.9740 91° East 425 489 23,000  Level FlightAware
08:36PM 41.1860 -90.8360 91° East 425 489 23,000 -660 Level FlightAware
08:36PM 41.1840 -90.7170 91° East 422 486 22,000 -780 Descending FlightAware
08:37PM 41.1820 -90.6130 91° East 420 483 22,000  Level FlightAware
08:38PM 41.1800 -90.5120 91° East 420 483 22,000  Level FlightAware
08:38PM 41.1780 -90.3950 91° East 425 489 22,000 -420 Level FlightAware
08:39PM 41.1760 -90.2810 91° East 443 510 21,400 -960 Descending FlightAware
08:40PM 41.1740 -90.1700 91° East 440 506 20,700 -1,020 Descending FlightAware
08:40PM 41.1710 -90.0530 92° East 431 496 20,000 -1,020 Descending FlightAware
08:41PM 41.1690 -89.9490 91° East 426 490 19,300 -1,080 Descending FlightAware
08:42PM 41.1660 -89.8400 92° East 424 488 18,600 -1,020 Descending FlightAware
08:43PM 41.1630 -89.7310 92° East 415 478 17,900 -1,080 Descending FlightAware
08:43PM 41.1610 -89.6320 92° East 410 472 17,200 -1,020 Descending FlightAware
08:44PM 41.1630 -89.5370 88° East 412 474 16,600 -1,320 Descending FlightAware
08:45PM 41.1750 -89.3650 85° East 399 459 14,900 -1,860 Descending FlightAware
08:46PM 41.1820 -89.2660 85° East 394 453 13,400 -2,340 Descending FlightAware
08:46PM 41.1890 -89.1570 85° East 387 445 11,600 -2,280 Descending FlightAware
08:47PM 41.2120 -89.0650 72° East 376 433 10,100 -1,440 Descending FlightAware
08:48PM 41.2350 -89.0150 59° Northeast 368 423 10,000 -120 Descending FlightAware
08:48PM 41.2590 -88.9610 59° Northeast 345 397 10,000  Level FlightAware
08:48PM 41.2830 -88.9100 58° Northeast 313 360 10,000 -360 Level FlightAware
08:49PM 41.3000 -88.8700 60° Northeast 305 351 9,700 -840 Descending FlightAware
08:49PM 41.3180 -88.8300 59° Northeast 301 346 9,300 -1,080 Descending FlightAware
08:50PM 41.3340 -88.7950 59° Northeast 299 344 8,900 -960 Descending FlightAware
08:50PM 41.3550 -88.7480 59° Northeast 296 341 8,500 -900 Descending FlightAware
08:51PM 41.3760 -88.7010 59° Northeast 293 337 8,000 -960 Descending FlightAware
08:51PM 41.3950 -88.6580 59° Northeast 292 336 7,600 -900 Descending FlightAware
08:52PM 41.4150 -88.6150 58° Northeast 291 335 7,200 -1,020 Descending FlightAware
08:52PM 41.4340 -88.5710 60° Northeast 289 333 6,700 -960 Descending FlightAware
08:53PM 41.4540 -88.5270 59° Northeast 285 328 6,300 -780 Descending FlightAware
08:53PM 41.4730 -88.4830 60° Northeast 281 323 6,000 -480 Descending FlightAware
08:53PM 41.4810 -88.4660 58° Northeast 281 323 6,000  Level FlightAware
08:54PM 41.4980 -88.4270 60° Northeast 280 322 6,000 -360 Level FlightAware
08:54PM 41.5030 -88.4060 72° East 285 328 5,800 -1,020 Descending FlightAware
08:54PM 41.5090 -88.3630 79° East 284 327 5,400 -960 Descending FlightAware
08:55PM 41.5150 -88.3160 80° East 283 326 5,000 -540 Descending FlightAware
08:55PM 41.5190 -88.2870 80° East 281 323 5,000  Level FlightAware
08:56PM 41.5250 -88.2360 81° East 279 321 5,000  Level FlightAware
08:56PM 41.5300 -88.2020 79° East 279 321 5,000  Level FlightAware
08:56PM 41.5350 -88.1610 81° East 278 320 5,000  Level FlightAware
08:57PM 41.5400 -88.1170 81° East 274 315 5,000  Level FlightAware
08:57PM 41.5390 -88.0710 92° East 254 292 5,000  Level FlightAware
08:58PM 41.5390 -88.0280 90° East 249 287 5,000  Level FlightAware
08:58PM 41.5390 -87.9970 90° East 248 285 5,000  Level FlightAware
08:58PM 41.5390 -87.9680 90° East 249 287 5,000  Level FlightAware
08:59PM 41.5380 -87.9240 92° East 250 288 5,000  Level FlightAware
08:59PM 41.5380 -87.9050 90° East 250 288 5,000  Level FlightAware
08:59PM 41.5380 -87.8620 90° East 251 289 5,000  Level FlightAware
09:00PM 41.5380 -87.8360 90° East 251 289 5,000  Level FlightAware
09:00PM 41.5380 -87.7980 90° East 251 289 5,000 -360 Level FlightAware
09:01PM 41.5480 -87.7600 71° East 241 277 4,700 -900 Descending FlightAware
09:01PM 41.5700 -87.7220 52° Northeast 245 282 4,100 -1,140 Descending FlightAware
09:01PM 41.5790 -87.7070 51° Northeast 246 283 3,900 -1,020 Descending FlightAware
09:02PM 41.5970 -87.6780 50° Northeast 249 287 3,500 -1,020 Descending FlightAware
09:02PM 41.6200 -87.6410 50° Northeast 247 284 3,000 -540 Descending FlightAware
09:03PM 41.6390 -87.6100 51° Northeast 215 247 3,000  Level FlightAware
09:03PM 41.6500 -87.6030 25° Northeast 191 220 3,000  Level FlightAware
09:03PM 41.6620 -87.6050 353° North 178 205 3,000  Level FlightAware
09:04PM 41.6840 -87.6140 343° North 176 203 3,000 -180 Level FlightAware
09:04PM 41.6920 -87.6210 327° Northwest 169 194 2,900 -600 Descending FlightAware
09:04PM 41.7070 -87.6430 312° West 170 196 2,600 -780 Descending FlightAware
09:05PM 41.7220 -87.6630 315° West 171 197 2,200 -840 Descending FlightAware
09:05PM 41.7330 -87.6730 326° Northwest 182 209 2,000 -300 Descending FlightAware
09:05PM 41.7540 -87.6690 North 188 216 2,000  Level FlightAware
09:06PM 41.7670 -87.6690 360° North 187 215 2,000 -180 Level FlightAware
09:06PM 41.7910 -87.6710 356° North 167 192 1,900 -540 Descending FlightAware
09:06PM 41.8010 -87.6790 329° Northwest 152 175 1,600 -900 Descending FlightAware
09:07PM 41.8060 -87.6870 310° West 141 162 1,500 -780 Descending FlightAware
09:07PM 41.8110 -87.6970 304° West 138 159 1,300 -360 Descending FlightAware
09:08PM 41.8180 -87.7260 288° West 138 159 1,200 -180 Descending FlightAware
09:08PM 41.8117 -87.7550 288° West 154 177 1,100 -180 Descending Chicago Center